sensor_id;sensor_type;location;lat;lon;timestamp;pressure;altitude;pressure_sealevel;temperature;humidity
20455;BME280;10386;54.314;10.022;2022-11-15T00:01:10;100162.44;;;6.40;100.00
20455;BME280;10386;54.314;10.022;2022-11-15T00:03:40;100165.53;;;6.34;100.00
20455;BME280;10386;54.314;10.022;2022-11-15T00:06:08;100157.09;;;6.26;100.00
20455;BME280;10386;54.314;10.022;2022-11-15T00:08:35;100163.91;;;6.17;100.00
20455;BME280;10386;54.314;10.022;2022-11-15T00:11:02;100167.13;;;6.10;100.00
20455;BME280;10386;54.314;10.022;2022-11-15T00:13:30;100165.84;;;6.15;100.00
20455;BME280;10386;54.314;10.022;2022-11-15T00:15:58;100164.44;;;5.96;100.00
20455;BME280;10386;54.314;10.022;2022-11-15T00:18:25;100175.44;;;5.77;100.00
20455;BME280;10386;54.314;10.022;2022-11-15T00:20:52;100177.25;;;5.63;100.00
20455;BME280;10386;54.314;10.022;2022-11-15T00:23:19;100176.97;;;5.53;100.00
20455;BME280;10386;54.314;10.022;2022-11-15T00:25:46;100172.13;;;5.44;100.00
20455;BME280;10386;54.314;10.022;2022-11-15T00:28:20;100168.84;;;5.39;100.00
20455;BME280;10386;54.314;10.022;2022-11-15T00:30:47;100163.19;;;5.44;100.00
20455;BME280;10386;54.314;10.022;2022-11-15T00:33:14;100157.81;;;5.58;100.00
20455;BME280;10386;54.314;10.022;2022-11-15T00:35:41;100150.72;;;5.57;100.00
20455;BME280;10386;54.314;10.022;2022-11-15T00:38:07;100150.81;;;5.55;100.00
20455;BME280;10386;54.314;10.022;2022-11-15T00:40:34;100148.47;;;5.49;100.00
20455;BME280;10386;54.314;10.022;2022-11-15T00:43:01;100046.09;;;5.51;100.00
20455;BME280;10386;54.314;10.022;2022-11-15T00:45:28;100034.69;;;5.61;100.00
20455;BME280;10386;54.314;10.022;2022-11-15T00:47:55;100021.38;;;5.72;100.00
20455;BME280;10386;54.314;10.022;2022-11-15T00:50:22;100014.91;;;5.75;100.00
20455;BME280;10386;54.314;10.022;2022-11-15T00:52:49;100023.31;;;5.84;100.00
20455;BME280;10386;54.314;10.022;2022-11-15T00:55:17;100013.97;;;5.90;100.00
20455;BME280;10386;54.314;10.022;2022-11-15T00:57:44;100010.28;;;5.91;100.00
20455;BME280;10386;54.314;10.022;2022-11-15T01:00:36;99995.72;;;6.07;100.00
20455;BME280;10386;54.314;10.022;2022-11-15T01:03:03;99982.94;;;6.11;100.00
20455;BME280;10386;54.314;10.022;2022-11-15T01:05:30;99991.38;;;6.19;100.00
20455;BME280;10386;54.314;10.022;2022-11-15T01:07:57;99988.81;;;6.30;100.00
20455;BME280;10386;54.314;10.022;2022-11-15T01:10:24;99993.69;;;6.37;100.00
20455;BME280;10386;54.314;10.022;2022-11-15T01:12:52;99983.25;;;6.45;100.00
20455;BME280;10386;54.314;10.022;2022-11-15T01:15:19;99968.50;;;6.51;100.00
20455;BME280;10386;54.314;10.022;2022-11-15T01:17:46;99965.38;;;6.44;100.00
20455;BME280;10386;54.314;10.022;2022-11-15T01:20:13;99970.50;;;6.35;100.00
20455;BME280;10386;54.314;10.022;2022-11-15T01:22:40;99977.41;;;6.39;100.00
20455;BME280;10386;54.314;10.022;2022-11-15T01:25:07;99965.03;;;6.49;100.00
20455;BME280;10386;54.314;10.022;2022-11-15T01:27:33;99977.63;;;6.36;100.00
20455;BME280;10386;54.314;10.022;2022-11-15T01:30:00;99976.88;;;6.34;100.00
20455;BME280;10386;54.314;10.022;2022-11-15T01:32:27;99973.88;;;6.51;100.00
20455;BME280;10386;54.314;10.022;2022-11-15T01:35:19;99957.28;;;6.57;100.00
20455;BME280;10386;54.314;10.022;2022-11-15T01:37:46;99945.41;;;6.47;100.00
20455;BME280;10386;54.314;10.022;2022-11-15T01:40:13;99950.38;;;6.53;100.00
20455;BME280;10386;54.314;10.022;2022-11-15T01:43:39;99950.16;;;6.43;100.00
20455;BME280;10386;54.314;10.022;2022-11-15T01:46:33;99943.03;;;6.42;100.00
20455;BME280;10386;54.314;10.022;2022-11-15T01:49:05;99944.97;;;6.53;100.00
20455;BME280;10386;54.314;10.022;2022-11-15T01:51:38;99935.03;;;6.41;100.00
20455;BME280;10386;54.314;10.022;2022-11-15T01:54:09;99943.47;;;6.49;100.00
20455;BME280;10386;54.314;10.022;2022-11-15T01:56:42;99934.50;;;6.36;100.00
20455;BME280;10386;54.314;10.022;2022-11-15T01:59:12;99926.53;;;6.47;100.00
20455;BME280;10386;54.314;10.022;2022-11-15T02:02:04;99921.59;;;6.53;100.00
20455;BME280;10386;54.314;10.022;2022-11-15T02:04:34;99919.31;;;6.47;100.00
20455;BME280;10386;54.314;10.022;2022-11-15T02:07:04;99915.13;;;6.56;100.00
20455;BME280;10386;54.314;10.022;2022-11-15T02:09:31;99913.59;;;6.52;100.00
20455;BME280;10386;54.314;10.022;2022-11-15T02:11:59;99907.66;;;6.47;100.00
20455;BME280;10386;54.314;10.022;2022-11-15T02:14:27;99915.41;;;6.39;100.00
20455;BME280;10386;54.314;10.022;2022-11-15T02:17:12;99902.25;;;6.34;100.00
20455;BME280;10386;54.314;10.022;2022-11-15T02:26:07;99905.50;;;6.39;100.00
20455;BME280;10386;54.314;10.022;2022-11-15T02:29:15;99917.56;;;6.34;100.00
20455;BME280;10386;54.314;10.022;2022-11-15T02:34:27;99914.31;;;6.29;100.00
20455;BME280;10386;54.314;10.022;2022-11-15T02:37:14;99914.44;;;6.40;100.00
20455;BME280;10386;54.314;10.022;2022-11-15T02:42:28;99914.69;;;6.10;100.00
20455;BME280;10386;54.314;10.022;2022-11-15T02:45:27;99910.44;;;6.33;100.00
20455;BME280;10386;54.314;10.022;2022-11-15T02:47:58;99914.41;;;6.15;100.00
20455;BME280;10386;54.314;10.022;2022-11-15T02:50:28;99915.25;;;6.15;100.00
20455;BME280;10386;54.314;10.022;2022-11-15T02:52:56;99912.34;;;6.06;100.00
20455;BME280;10386;54.314;10.022;2022-11-15T02:55:38;99899.97;;;6.16;100.00
20455;BME280;10386;54.314;10.022;2022-11-15T03:03:57;99912.16;;;5.95;100.00
20455;BME280;10386;54.314;10.022;2022-11-15T03:06:35;99896.41;;;5.89;100.00
20455;BME280;10386;54.314;10.022;2022-11-15T03:09:50;99905.38;;;5.89;100.00
20455;BME280;10386;54.314;10.022;2022-11-15T03:12:28;99900.84;;;5.90;100.00
20455;BME280;10386;54.314;10.022;2022-11-15T03:15:05;99904.63;;;5.87;100.00
20455;BME280;10386;54.314;10.022;2022-11-15T03:17:36;99892.19;;;5.85;100.00
20455;BME280;10386;54.314;10.022;2022-11-15T03:20:06;99888.53;;;5.86;100.00
20455;BME280;10386;54.314;10.022;2022-11-15T03:22:39;99894.47;;;5.78;100.00
20455;BME280;10386;54.314;10.022;2022-11-15T03:25:08;99888.97;;;5.80;100.00
20455;BME280;10386;54.314;10.022;2022-11-15T03:27:40;99885.00;;;5.85;100.00
20455;BME280;10386;54.314;10.022;2022-11-15T03:30:08;99892.56;;;5.93;100.00
20455;BME280;10386;54.314;10.022;2022-11-15T03:32:47;99889.50;;;5.85;100.00
20455;BME280;10386;54.314;10.022;2022-11-15T03:35:25;99879.50;;;5.87;100.00
20455;BME280;10386;54.314;10.022;2022-11-15T03:40:50;99869.13;;;5.81;100.00
20455;BME280;10386;54.314;10.022;2022-11-15T03:43:44;99879.25;;;5.77;100.00
20455;BME280;10386;54.314;10.022;2022-11-15T03:46:17;99872.81;;;5.66;100.00
20455;BME280;10386;54.314;10.022;2022-11-15T03:48:51;99880.91;;;5.66;100.00
20455;BME280;10386;54.314;10.022;2022-11-15T03:51:19;99889.88;;;5.66;100.00
20455;BME280;10386;54.314;10.022;2022-11-15T03:53:47;99879.38;;;5.62;100.00
20455;BME280;10386;54.314;10.022;2022-11-15T03:56:14;99882.41;;;5.57;100.00
20455;BME280;10386;54.314;10.022;2022-11-15T03:58:43;99886.41;;;5.50;100.00
20455;BME280;10386;54.314;10.022;2022-11-15T04:01:10;99887.31;;;5.51;100.00
20455;BME280;10386;54.314;10.022;2022-11-15T04:03:37;99901.94;;;5.47;100.00
20455;BME280;10386;54.314;10.022;2022-11-15T04:06:04;99907.31;;;5.47;100.00
20455;BME280;10386;54.314;10.022;2022-11-15T04:08:31;99901.94;;;5.47;100.00
20455;BME280;10386;54.314;10.022;2022-11-15T04:11:02;99901.44;;;5.54;100.00
20455;BME280;10386;54.314;10.022;2022-11-15T04:13:28;99894.34;;;5.53;100.00
20455;BME280;10386;54.314;10.022;2022-11-15T04:15:56;99905.47;;;5.61;100.00
20455;BME280;10386;54.314;10.022;2022-11-15T04:18:23;99906.34;;;5.48;100.00
20455;BME280;10386;54.314;10.022;2022-11-15T04:20:50;99904.81;;;5.44;100.00
20455;BME280;10386;54.314;10.022;2022-11-15T04:23:38;99910.41;;;5.41;100.00
20455;BME280;10386;54.314;10.022;2022-11-15T04:26:34;99905.66;;;5.44;100.00
20455;BME280;10386;54.314;10.022;2022-11-15T04:29:04;99909.44;;;5.42;100.00
20455;BME280;10386;54.314;10.022;2022-11-15T04:32:02;99909.44;;;5.42;100.00
20455;BME280;10386;54.314;10.022;2022-11-15T04:34:28;99915.22;;;5.36;100.00
20455;BME280;10386;54.314;10.022;2022-11-15T04:36:55;99920.88;;;5.32;100.00
20455;BME280;10386;54.314;10.022;2022-11-15T04:39:42;99924.66;;;5.29;100.00
20455;BME280;10386;54.314;10.022;2022-11-15T04:42:10;99926.41;;;5.16;100.00
20455;BME280;10386;54.314;10.022;2022-11-15T04:44:43;99919.47;;;5.26;100.00
20455;BME280;10386;54.314;10.022;2022-11-15T04:47:09;99920.63;;;5.22;100.00
20455;BME280;10386;54.314;10.022;2022-11-15T04:49:36;99920.72;;;5.21;100.00
20455;BME280;10386;54.314;10.022;2022-11-15T04:52:03;99932.34;;;5.07;100.00
20455;BME280;10386;54.314;10.022;2022-11-15T04:54:30;99935.44;;;5.15;100.00
20455;BME280;10386;54.314;10.022;2022-11-15T04:56:57;99933.22;;;5.08;100.00
20455;BME280;10386;54.314;10.022;2022-11-15T04:59:24;99931.28;;;5.24;100.00
20455;BME280;10386;54.314;10.022;2022-11-15T05:02:18;99923.50;;;5.19;100.00
20455;BME280;10386;54.314;10.022;2022-11-15T05:04:44;99920.50;;;5.24;100.00
20455;BME280;10386;54.314;10.022;2022-11-15T05:07:11;99937.16;;;5.16;100.00
20455;BME280;10386;54.314;10.022;2022-11-15T05:09:38;99923.22;;;5.24;100.00
20455;BME280;10386;54.314;10.022;2022-11-15T05:12:05;99926.47;;;5.29;100.00
20455;BME280;10386;54.314;10.022;2022-11-15T05:14:32;99923.13;;;5.25;100.00
20455;BME280;10386;54.314;10.022;2022-11-15T05:17:00;99923.50;;;5.19;100.00
20455;BME280;10386;54.314;10.022;2022-11-15T05:19:27;99919.28;;;5.01;100.00
20455;BME280;10386;54.314;10.022;2022-11-15T05:21:57;99923.81;;;5.01;100.00
20455;BME280;10386;54.314;10.022;2022-11-15T05:24:24;99923.13;;;4.97;100.00
20455;BME280;10386;54.314;10.022;2022-11-15T05:26:51;99928.69;;;4.94;100.00
20455;BME280;10386;54.314;10.022;2022-11-15T05:29:18;99932.06;;;4.98;100.00
20455;BME280;10386;54.314;10.022;2022-11-15T05:31:44;99926.97;;;4.93;100.00
20455;BME280;10386;54.314;10.022;2022-11-15T05:34:12;99920.25;;;5.14;100.00
20455;BME280;10386;54.314;10.022;2022-11-15T05:36:42;99915.25;;;5.22;100.00
20455;BME280;10386;54.314;10.022;2022-11-15T05:39:09;99905.84;;;5.15;100.00
20455;BME280;10386;54.314;10.022;2022-11-15T05:41:50;99918.97;;;5.20;100.00
20455;BME280;10386;54.314;10.022;2022-11-15T05:44:20;99921.38;;;5.38;100.00
20455;BME280;10386;54.314;10.022;2022-11-15T05:46:53;99915.53;;;5.58;100.00
20455;BME280;10386;54.314;10.022;2022-11-15T05:49:24;99911.88;;;5.59;100.00
20455;BME280;10386;54.314;10.022;2022-11-15T05:51:53;99908.03;;;5.63;100.00
20455;BME280;10386;54.314;10.022;2022-11-15T05:54:21;99903.41;;;5.65;100.00
20455;BME280;10386;54.314;10.022;2022-11-15T05:56:51;99898.50;;;5.71;100.00
20455;BME280;10386;54.314;10.022;2022-11-15T05:59:18;99899.13;;;5.75;100.00
20455;BME280;10386;54.314;10.022;2022-11-15T06:01:46;99897.53;;;5.72;100.00
20455;BME280;10386;54.314;10.022;2022-11-15T06:04:13;99896.66;;;5.72;100.00
20455;BME280;10386;54.314;10.022;2022-11-15T06:06:39;99903.13;;;5.69;100.00
20455;BME280;10386;54.314;10.022;2022-11-15T06:12:23;99899.53;;;5.83;100.00
20455;BME280;10386;54.314;10.022;2022-11-15T06:14:50;99910.13;;;5.72;100.00
20455;BME280;10386;54.314;10.022;2022-11-15T06:17:16;99923.38;;;5.75;100.00
20455;BME280;10386;54.314;10.022;2022-11-15T06:19:43;99933.88;;;5.79;100.00
20455;BME280;10386;54.314;10.022;2022-11-15T06:22:10;99958.56;;;5.86;100.00
20455;BME280;10386;54.314;10.022;2022-11-15T06:24:37;99965.88;;;5.84;100.00
20455;BME280;10386;54.314;10.022;2022-11-15T06:27:04;99973.97;;;5.84;100.00
20455;BME280;10386;54.314;10.022;2022-11-15T06:29:31;99984.09;;;5.80;100.00
20455;BME280;10386;54.314;10.022;2022-11-15T06:31:58;99974.94;;;5.83;100.00
20455;BME280;10386;54.314;10.022;2022-11-15T06:34:24;99979.75;;;5.78;100.00
20455;BME280;10386;54.314;10.022;2022-11-15T06:36:51;99988.88;;;5.75;100.00
20455;BME280;10386;54.314;10.022;2022-11-15T06:39:18;99984.16;;;5.79;100.00
20455;BME280;10386;54.314;10.022;2022-11-15T06:41:47;99985.41;;;5.87;100.00
20455;BME280;10386;54.314;10.022;2022-11-15T06:44:14;99981.47;;;5.79;100.00
20455;BME280;10386;54.314;10.022;2022-11-15T06:47:06;99983.97;;;5.82;100.00
20455;BME280;10386;54.314;10.022;2022-11-15T06:49:33;99976.03;;;5.93;100.00
20455;BME280;10386;54.314;10.022;2022-11-15T06:51:59;99981.97;;;6.12;100.00
20455;BME280;10386;54.314;10.022;2022-11-15T06:54:26;99981.22;;;6.10;100.00
20455;BME280;10386;54.314;10.022;2022-11-15T06:56:53;99981.44;;;6.19;100.00
20455;BME280;10386;54.314;10.022;2022-11-15T06:59:20;99971.22;;;6.24;100.00
20455;BME280;10386;54.314;10.022;2022-11-15T07:01:47;99975.09;;;6.20;100.00
20455;BME280;10386;54.314;10.022;2022-11-15T07:04:14;99981.78;;;6.27;100.00
20455;BME280;10386;54.314;10.022;2022-11-15T07:06:41;99982.50;;;6.43;100.00
20455;BME280;10386;54.314;10.022;2022-11-15T07:09:07;99987.16;;;6.54;100.00
20455;BME280;10386;54.314;10.022;2022-11-15T07:11:34;99995.69;;;6.60;100.00
20455;BME280;10386;54.314;10.022;2022-11-15T07:14:01;99994.06;;;6.58;100.00
20455;BME280;10386;54.314;10.022;2022-11-15T07:16:28;100001.31;;;6.70;100.00
20455;BME280;10386;54.314;10.022;2022-11-15T07:18:55;99990.75;;;6.79;100.00
20455;BME280;10386;54.314;10.022;2022-11-15T07:21:22;100001.78;;;6.88;100.00
20455;BME280;10386;54.314;10.022;2022-11-15T07:23:53;99995.09;;;6.82;100.00
20455;BME280;10386;54.314;10.022;2022-11-15T07:26:20;99986.56;;;6.87;100.00
20455;BME280;10386;54.314;10.022;2022-11-15T07:28:47;99986.91;;;6.95;100.00
20455;BME280;10386;54.314;10.022;2022-11-15T07:31:43;99991.53;;;7.06;100.00
20455;BME280;10386;54.314;10.022;2022-11-15T07:34:10;99989.28;;;7.12;100.00
20455;BME280;10386;54.314;10.022;2022-11-15T07:37:02;99982.56;;;7.18;100.00
20455;BME280;10386;54.314;10.022;2022-11-15T07:39:29;99975.44;;;7.17;100.00
20455;BME280;10386;54.314;10.022;2022-11-15T07:41:55;99967.69;;;7.12;100.00
20455;BME280;10386;54.314;10.022;2022-11-15T07:45:07;99968.00;;;7.20;100.00
20455;BME280;10386;54.314;10.022;2022-11-15T07:47:34;99970.03;;;7.29;100.00
20455;BME280;10386;54.314;10.022;2022-11-15T07:50:01;99976.19;;;7.19;100.00
20455;BME280;10386;54.314;10.022;2022-11-15T07:52:27;99974.78;;;7.38;100.00
20455;BME280;10386;54.314;10.022;2022-11-15T07:54:54;99965.84;;;7.38;100.00
20455;BME280;10386;54.314;10.022;2022-11-15T07:57:21;99970.03;;;7.42;100.00
20455;BME280;10386;54.314;10.022;2022-11-15T07:59:48;99969.81;;;7.45;100.00
20455;BME280;10386;54.314;10.022;2022-11-15T08:02:15;99968.28;;;7.53;100.00
20455;BME280;10386;54.314;10.022;2022-11-15T08:04:44;99965.03;;;7.61;100.00
20455;BME280;10386;54.314;10.022;2022-11-15T08:07:12;99955.81;;;7.63;100.00
20455;BME280;10386;54.314;10.022;2022-11-15T08:09:39;99958.66;;;7.62;100.00
20455;BME280;10386;54.314;10.022;2022-11-15T08:12:06;99953.13;;;7.63;100.00
20455;BME280;10386;54.314;10.022;2022-11-15T08:14:34;99957.91;;;7.60;100.00
20455;BME280;10386;54.314;10.022;2022-11-15T08:17:06;99957.69;;;7.63;100.00
20455;BME280;10386;54.314;10.022;2022-11-15T08:19:33;99957.22;;;7.69;100.00
20455;BME280;10386;54.314;10.022;2022-11-15T08:21:59;99943.41;;;7.73;100.00
20455;BME280;10386;54.314;10.022;2022-11-15T08:24:29;99953.00;;;7.77;100.00
20455;BME280;10386;54.314;10.022;2022-11-15T08:26:55;99963.69;;;7.79;100.00
20455;BME280;10386;54.314;10.022;2022-11-15T08:29:24;99969.66;;;7.71;100.00
20455;BME280;10386;54.314;10.022;2022-11-15T08:31:55;99967.81;;;7.72;100.00
20455;BME280;10386;54.314;10.022;2022-11-15T08:34:22;99970.72;;;7.81;100.00
20455;BME280;10386;54.314;10.022;2022-11-15T08:36:51;99968.84;;;7.82;100.00
20455;BME280;10386;54.314;10.022;2022-11-15T08:39:18;99963.41;;;7.94;100.00
20455;BME280;10386;54.314;10.022;2022-11-15T08:41:45;99964.84;;;7.87;100.00
20455;BME280;10386;54.314;10.022;2022-11-15T08:44:12;99963.06;;;7.99;100.00
20455;BME280;10386;54.314;10.022;2022-11-15T08:46:39;99960.06;;;7.91;100.00
20455;BME280;10386;54.314;10.022;2022-11-15T08:49:06;99964.25;;;7.95;100.00
20455;BME280;10386;54.314;10.022;2022-11-15T08:51:32;99969.56;;;7.96;100.00
20455;BME280;10386;54.314;10.022;2022-11-15T08:53:59;99973.31;;;8.06;100.00
20455;BME280;10386;54.314;10.022;2022-11-15T08:56:26;99968.38;;;8.00;100.00
20455;BME280;10386;54.314;10.022;2022-11-15T08:58:53;99960.25;;;8.00;100.00
20455;BME280;10386;54.314;10.022;2022-11-15T09:01:21;99969.63;;;8.07;100.00
20455;BME280;10386;54.314;10.022;2022-11-15T09:03:48;99973.41;;;8.05;100.00
20455;BME280;10386;54.314;10.022;2022-11-15T09:06:15;99974.53;;;8.02;100.00
20455;BME280;10386;54.314;10.022;2022-11-15T09:08:42;99968.09;;;8.16;100.00
20455;BME280;10386;54.314;10.022;2022-11-15T09:11:15;99958.56;;;8.23;100.00
20455;BME280;10386;54.314;10.022;2022-11-15T09:13:44;99963.75;;;8.25;100.00
20455;BME280;10386;54.314;10.022;2022-11-15T09:16:11;99961.78;;;8.27;100.00
20455;BME280;10386;54.314;10.022;2022-11-15T09:18:39;99969.16;;;8.25;100.00
20455;BME280;10386;54.314;10.022;2022-11-15T09:21:06;99968.28;;;8.25;100.00
20455;BME280;10386;54.314;10.022;2022-11-15T09:23:33;99968.03;;;8.28;100.00
20455;BME280;10386;54.314;10.022;2022-11-15T09:26:01;99975.81;;;8.32;100.00
20455;BME280;10386;54.314;10.022;2022-11-15T09:28:29;99974.25;;;8.41;100.00
20455;BME280;10386;54.314;10.022;2022-11-15T09:30:58;99902.94;;;8.42;100.00
20455;BME280;10386;54.314;10.022;2022-11-15T09:33:26;99902.69;;;8.34;100.00
20455;BME280;10386;54.314;10.022;2022-11-15T09:35:54;99900.41;;;8.51;100.00
20455;BME280;10386;54.314;10.022;2022-11-15T09:38:21;99897.38;;;8.56;100.00
20455;BME280;10386;54.314;10.022;2022-11-15T09:41:07;99910.81;;;8.45;100.00
20455;BME280;10386;54.314;10.022;2022-11-15T09:46:49;99912.97;;;8.63;100.00
20455;BME280;10386;54.314;10.022;2022-11-15T09:49:22;99913.69;;;8.54;100.00
20455;BME280;10386;54.314;10.022;2022-11-15T09:51:53;99919.28;;;8.64;100.00
20455;BME280;10386;54.314;10.022;2022-11-15T09:54:30;99918.78;;;8.59;100.00
20455;BME280;10386;54.314;10.022;2022-11-15T09:57:37;99921.34;;;8.60;100.00
20455;BME280;10386;54.314;10.022;2022-11-15T10:00:34;99915.44;;;8.66;100.00
20455;BME280;10386;54.314;10.022;2022-11-15T10:03:25;99909.31;;;8.75;100.00
20455;BME280;10386;54.314;10.022;2022-11-15T10:05:56;99902.81;;;8.78;100.00
20455;BME280;10386;54.314;10.022;2022-11-15T10:08:47;99907.34;;;8.77;100.00
20455;BME280;10386;54.314;10.022;2022-11-15T10:11:20;99914.25;;;8.81;100.00
20455;BME280;10386;54.314;10.022;2022-11-15T10:14:24;99913.41;;;8.81;100.00
20455;BME280;10386;54.314;10.022;2022-11-15T10:17:06;99915.13;;;8.93;100.00
20455;BME280;10386;54.314;10.022;2022-11-15T10:19:43;99917.84;;;8.93;100.00
20455;BME280;10386;54.314;10.022;2022-11-15T10:22:35;99913.03;;;8.85;100.00
20455;BME280;10386;54.314;10.022;2022-11-15T10:25:28;99919.56;;;8.94;100.00
20455;BME280;10386;54.314;10.022;2022-11-15T10:27:57;99923.00;;;8.85;100.00
20455;BME280;10386;54.314;10.022;2022-11-15T10:30:45;99922.16;;;8.95;100.00
20455;BME280;10386;54.314;10.022;2022-11-15T10:33:23;99918.31;;;8.87;100.00
20455;BME280;10386;54.314;10.022;2022-11-15T10:39:00;99924.63;;;8.98;100.00
20455;BME280;10386;54.314;10.022;2022-11-15T10:46:38;99927.69;;;8.94;100.00
20455;BME280;10386;54.314;10.022;2022-11-15T10:49:14;99928.91;;;9.01;100.00
20455;BME280;10386;54.314;10.022;2022-11-15T10:51:59;99928.69;;;9.04;100.00
20455;BME280;10386;54.314;10.022;2022-11-15T10:57:07;99924.00;;;9.06;100.00
20455;BME280;10386;54.314;10.022;2022-11-15T10:59:36;99937.19;;;8.99;100.00
20455;BME280;10386;54.314;10.022;2022-11-15T11:04:50;99933.59;;;8.99;100.00
20455;BME280;10386;54.314;10.022;2022-11-15T11:07:58;99930.78;;;9.00;100.00
20455;BME280;10386;54.314;10.022;2022-11-15T11:10:25;99929.56;;;9.04;100.00
20455;BME280;10386;54.314;10.022;2022-11-15T11:18:38;99910.13;;;9.10;100.00
20455;BME280;10386;54.314;10.022;2022-11-15T11:21:10;99918.25;;;9.10;100.00
20455;BME280;10386;54.314;10.022;2022-11-15T11:23:59;99920.31;;;9.18;100.00
20455;BME280;10386;54.314;10.022;2022-11-15T11:26:38;99927.09;;;9.23;100.00
20455;BME280;10386;54.314;10.022;2022-11-15T11:29:33;99925.97;;;9.26;100.00
20455;BME280;10386;54.314;10.022;2022-11-15T11:40:43;99918.13;;;9.45;100.00
20455;BME280;10386;54.314;10.022;2022-11-15T11:43:32;99924.28;;;9.36;100.00
20455;BME280;10386;54.314;10.022;2022-11-15T11:49:15;99924.03;;;9.50;100.00
20455;BME280;10386;54.314;10.022;2022-11-15T11:51:45;100016.25;;;9.59;100.00
20455;BME280;10386;54.314;10.022;2022-11-15T11:57:06;100032.41;;;9.60;100.00
20455;BME280;10386;54.314;10.022;2022-11-15T11:59:43;100029.19;;;9.66;100.00
20455;BME280;10386;54.314;10.022;2022-11-15T12:02:29;100036.44;;;9.66;100.00
20455;BME280;10386;54.314;10.022;2022-11-15T12:07:45;100047.19;;;9.67;100.00
20455;BME280;10386;54.314;10.022;2022-11-15T12:10:24;100053.81;;;9.74;100.00
20455;BME280;10386;54.314;10.022;2022-11-15T12:13:05;100057.91;;;9.80;100.00
20455;BME280;10386;54.314;10.022;2022-11-15T12:15:51;100059.88;;;9.78;100.00
20455;BME280;10386;54.314;10.022;2022-11-15T12:18:49;100063.19;;;9.81;100.00
20455;BME280;10386;54.314;10.022;2022-11-15T12:24:00;100069.59;;;9.91;100.00
20455;BME280;10386;54.314;10.022;2022-11-15T12:26:46;100075.91;;;9.92;100.00
20455;BME280;10386;54.314;10.022;2022-11-15T12:29:20;100066.56;;;10.07;100.00
20455;BME280;10386;54.314;10.022;2022-11-15T12:31:52;100076.03;;;10.12;100.00
20455;BME280;10386;54.314;10.022;2022-11-15T12:36:50;100073.06;;;10.04;100.00
20455;BME280;10386;54.314;10.022;2022-11-15T12:39:18;100078.63;;;10.03;100.00
20455;BME280;10386;54.314;10.022;2022-11-15T12:52:08;100094.50;;;10.07;100.00
20455;BME280;10386;54.314;10.022;2022-11-15T13:02:36;100096.47;;;10.16;100.00
20455;BME280;10386;54.314;10.022;2022-11-15T13:08:06;100106.13;;;10.20;100.00
20455;BME280;10386;54.314;10.022;2022-11-15T13:10:33;100113.03;;;10.24;100.00
20455;BME280;10386;54.314;10.022;2022-11-15T13:13:07;100118.81;;;10.20;100.00
20455;BME280;10386;54.314;10.022;2022-11-15T13:15:46;100124.84;;;10.12;100.00
20455;BME280;10386;54.314;10.022;2022-11-15T13:18:53;100130.41;;;10.22;100.00
20455;BME280;10386;54.314;10.022;2022-11-15T13:21:24;100125.22;;;10.30;100.00
20455;BME280;10386;54.314;10.022;2022-11-15T13:24:14;100131.88;;;10.04;100.00
20455;BME280;10386;54.314;10.022;2022-11-15T13:26:48;100130.00;;;10.04;100.00
20455;BME280;10386;54.314;10.022;2022-11-15T13:29:17;100126.72;;;10.12;100.00
20455;BME280;10386;54.314;10.022;2022-11-15T13:31:45;100128.28;;;10.14;100.00
20455;BME280;10386;54.314;10.022;2022-11-15T13:34:23;100131.50;;;10.08;100.00
20455;BME280;10386;54.314;10.022;2022-11-15T13:39:48;100128.28;;;10.14;100.00
20455;BME280;10386;54.314;10.022;2022-11-15T13:42:17;100135.69;;;10.12;100.00
20455;BME280;10386;54.314;10.022;2022-11-15T13:45:15;100123.63;;;10.27;100.00
20455;BME280;10386;54.314;10.022;2022-11-15T13:47:42;100125.13;;;10.20;100.00
20455;BME280;10386;54.314;10.022;2022-11-15T13:50:13;100125.97;;;10.21;100.00
20455;BME280;10386;54.314;10.022;2022-11-15T13:52:43;100127.06;;;10.29;100.00
20455;BME280;10386;54.314;10.022;2022-11-15T13:55:17;100119.28;;;10.25;100.00
20455;BME280;10386;54.314;10.022;2022-11-15T13:57:51;100122.63;;;10.28;100.00
20455;BME280;10386;54.314;10.022;2022-11-15T14:00:45;100119.94;;;10.28;100.00
20455;BME280;10386;54.314;10.022;2022-11-15T14:03:25;100124.47;;;10.39;100.00
20455;BME280;10386;54.314;10.022;2022-11-15T14:06:15;100133.25;;;10.20;100.00
20455;BME280;10386;54.314;10.022;2022-11-15T14:11:24;100128.06;;;10.39;100.00
20455;BME280;10386;54.314;10.022;2022-11-15T14:16:44;100130.75;;;10.39;100.00
20455;BME280;10386;54.314;10.022;2022-11-15T14:19:33;100125.94;;;10.32;100.00
20455;BME280;10386;54.314;10.022;2022-11-15T14:22:30;100133.84;;;10.35;100.00
20455;BME280;10386;54.314;10.022;2022-11-15T14:25:19;100132.25;;;10.32;100.00
20455;BME280;10386;54.314;10.022;2022-11-15T14:31:10;100135.19;;;10.51;100.00
20455;BME280;10386;54.314;10.022;2022-11-15T14:33:44;100132.72;;;10.48;100.00
20455;BME280;10386;54.314;10.022;2022-11-15T14:36:18;100128.28;;;10.47;100.00
20455;BME280;10386;54.314;10.022;2022-11-15T14:38:46;100128.16;;;10.49;100.00
20455;BME280;10386;54.314;10.022;2022-11-15T14:41:27;100129.53;;;10.43;100.00
20455;BME280;10386;54.314;10.022;2022-11-15T14:44:04;100133.31;;;10.52;100.00
20455;BME280;10386;54.314;10.022;2022-11-15T14:46:32;100121.97;;;10.47;100.00
20455;BME280;10386;54.314;10.022;2022-11-15T14:48:59;100115.94;;;10.54;100.00
20455;BME280;10386;54.314;10.022;2022-11-15T14:51:29;100115.72;;;10.46;100.00
20455;BME280;10386;54.314;10.022;2022-11-15T14:53:56;100122.84;;;10.47;100.00
20455;BME280;10386;54.314;10.022;2022-11-15T14:56:23;100124.59;;;10.48;100.00